sensor_id;sensor_type;location;lat;lon;timestamp;temperature;humidity
34279;DHT22;20538;51.528;9.942;2022-09-02T00:01:43;13.60;99.00
34279;DHT22;20538;51.528;9.942;2022-09-02T00:04:13;13.50;99.40
34279;DHT22;20538;51.528;9.942;2022-09-02T00:06:39;13.40;99.80
34279;DHT22;20538;51.528;9.942;2022-09-02T00:09:07;13.30;99.80
34279;DHT22;20538;51.528;9.942;2022-09-02T00:11:35;13.40;99.90
34279;DHT22;20538;51.528;9.942;2022-09-02T00:14:05;13.40;99.90
34279;DHT22;20538;51.528;9.942;2022-09-02T00:16:31;13.40;99.90
34279;DHT22;20538;51.528;9.942;2022-09-02T00:18:58;13.30;99.90
34279;DHT22;20538;51.528;9.942;2022-09-02T00:21:25;13.30;99.90
34279;DHT22;20538;51.528;9.942;2022-09-02T00:23:51;13.30;99.90
34279;DHT22;20538;51.528;9.942;2022-09-02T00:26:17;13.20;99.90
34279;DHT22;20538;51.528;9.942;2022-09-02T00:28:43;13.30;99.90
34279;DHT22;20538;51.528;9.942;2022-09-02T00:31:11;13.30;99.90
34279;DHT22;20538;51.528;9.942;2022-09-02T00:33:38;13.20;99.90
34279;DHT22;20538;51.528;9.942;2022-09-02T00:36:04;13.10;99.90
34279;DHT22;20538;51.528;9.942;2022-09-02T00:38:31;13.10;99.90
34279;DHT22;20538;51.528;9.942;2022-09-02T00:40:59;13.00;99.90
34279;DHT22;20538;51.528;9.942;2022-09-02T00:43:46;12.90;99.90
34279;DHT22;20538;51.528;9.942;2022-09-02T00:46:14;12.90;99.90
34279;DHT22;20538;51.528;9.942;2022-09-02T00:48:57;12.80;99.90
34279;DHT22;20538;51.528;9.942;2022-09-02T00:51:25;12.80;99.90
34279;DHT22;20538;51.528;9.942;2022-09-02T00:53:54;12.80;99.90
34279;DHT22;20538;51.528;9.942;2022-09-02T00:56:25;12.80;99.90
34279;DHT22;20538;51.528;9.942;2022-09-02T00:58:52;12.70;99.90
34279;DHT22;20538;51.528;9.942;2022-09-02T01:01:18;12.70;99.90
34279;DHT22;20538;51.528;9.942;2022-09-02T01:03:47;12.70;99.90
34279;DHT22;20538;51.528;9.942;2022-09-02T01:06:13;12.70;99.90
34279;DHT22;20538;51.528;9.942;2022-09-02T01:08:42;12.60;99.90
34279;DHT22;20538;51.528;9.942;2022-09-02T01:11:09;12.60;99.90
34279;DHT22;20538;51.528;9.942;2022-09-02T01:13:40;12.50;99.90
34279;DHT22;20538;51.528;9.942;2022-09-02T01:18:35;12.50;99.90
34279;DHT22;20538;51.528;9.942;2022-09-02T01:21:02;12.40;99.90
34279;DHT22;20538;51.528;9.942;2022-09-02T01:23:29;12.40;99.90
34279;DHT22;20538;51.528;9.942;2022-09-02T01:25:56;12.40;99.90
34279;DHT22;20538;51.528;9.942;2022-09-02T01:28:23;12.40;99.90
34279;DHT22;20538;51.528;9.942;2022-09-02T01:30:52;12.40;99.90
34279;DHT22;20538;51.528;9.942;2022-09-02T01:33:19;12.40;99.90
34279;DHT22;20538;51.528;9.942;2022-09-02T01:35:45;12.30;99.90
34279;DHT22;20538;51.528;9.942;2022-09-02T01:38:12;12.20;99.90
34279;DHT22;20538;51.528;9.942;2022-09-02T01:40:38;12.10;99.90
34279;DHT22;20538;51.528;9.942;2022-09-02T01:43:11;12.10;99.90
34279;DHT22;20538;51.528;9.942;2022-09-02T01:45:38;12.00;99.90
34279;DHT22;20538;51.528;9.942;2022-09-02T01:48:06;11.90;99.90
34279;DHT22;20538;51.528;9.942;2022-09-02T01:50:32;11.90;99.90
34279;DHT22;20538;51.528;9.942;2022-09-02T01:52:59;11.90;99.90
34279;DHT22;20538;51.528;9.942;2022-09-02T01:55:29;11.90;99.90
34279;DHT22;20538;51.528;9.942;2022-09-02T01:57:56;11.80;99.90
34279;DHT22;20538;51.528;9.942;2022-09-02T02:00:22;11.70;99.90
34279;DHT22;20538;51.528;9.942;2022-09-02T02:02:48;11.70;99.90
34279;DHT22;20538;51.528;9.942;2022-09-02T02:05:14;11.70;99.90
34279;DHT22;20538;51.528;9.942;2022-09-02T02:07:41;11.80;99.90
34279;DHT22;20538;51.528;9.942;2022-09-02T02:10:08;11.70;99.90
34279;DHT22;20538;51.528;9.942;2022-09-02T02:12:36;11.70;99.90
34279;DHT22;20538;51.528;9.942;2022-09-02T02:15:04;11.70;99.90
34279;DHT22;20538;51.528;9.942;2022-09-02T02:17:31;11.60;99.90
34279;DHT22;20538;51.528;9.942;2022-09-02T02:19:56;11.60;99.90
34279;DHT22;20538;51.528;9.942;2022-09-02T02:22:22;11.60;99.90
34279;DHT22;20538;51.528;9.942;2022-09-02T02:24:48;11.50;99.90
34279;DHT22;20538;51.528;9.942;2022-09-02T02:27:13;11.50;99.90
34279;DHT22;20538;51.528;9.942;2022-09-02T02:29:39;11.50;99.90
34279;DHT22;20538;51.528;9.942;2022-09-02T02:32:05;11.40;99.90
34279;DHT22;20538;51.528;9.942;2022-09-02T02:34:33;11.40;99.90
34279;DHT22;20538;51.528;9.942;2022-09-02T02:36:59;11.30;99.90
34279;DHT22;20538;51.528;9.942;2022-09-02T02:39:25;11.20;99.90
34279;DHT22;20538;51.528;9.942;2022-09-02T02:41:50;11.20;99.90
34279;DHT22;20538;51.528;9.942;2022-09-02T02:44:16;11.10;99.90
34279;DHT22;20538;51.528;9.942;2022-09-02T02:46:42;11.20;99.90
34279;DHT22;20538;51.528;9.942;2022-09-02T02:49:08;11.10;99.90
34279;DHT22;20538;51.528;9.942;2022-09-02T02:51:34;11.10;99.90
34279;DHT22;20538;51.528;9.942;2022-09-02T02:54:01;11.10;99.90
34279;DHT22;20538;51.528;9.942;2022-09-02T02:56:28;11.00;99.90
34279;DHT22;20538;51.528;9.942;2022-09-02T02:58:55;11.00;99.90
34279;DHT22;20538;51.528;9.942;2022-09-02T03:01:21;10.90;99.90
34279;DHT22;20538;51.528;9.942;2022-09-02T03:03:47;10.90;99.90
34279;DHT22;20538;51.528;9.942;2022-09-02T03:06:13;10.90;99.90
34279;DHT22;20538;51.528;9.942;2022-09-02T03:08:39;10.90;99.90
34279;DHT22;20538;51.528;9.942;2022-09-02T03:11:04;10.90;99.90
34279;DHT22;20538;51.528;9.942;2022-09-02T03:13:32;10.80;99.90
34279;DHT22;20538;51.528;9.942;2022-09-02T03:15:58;10.70;99.90
34279;DHT22;20538;51.528;9.942;2022-09-02T03:18:24;10.70;99.90
34279;DHT22;20538;51.528;9.942;2022-09-02T03:20:50;10.70;99.90
34279;DHT22;20538;51.528;9.942;2022-09-02T03:23:16;10.70;99.90
34279;DHT22;20538;51.528;9.942;2022-09-02T03:25:44;10.70;99.90
34279;DHT22;20538;51.528;9.942;2022-09-02T03:28:10;10.70;99.90
34279;DHT22;20538;51.528;9.942;2022-09-02T03:30:38;10.60;99.90
34279;DHT22;20538;51.528;9.942;2022-09-02T03:33:04;10.60;99.90
34279;DHT22;20538;51.528;9.942;2022-09-02T03:35:31;10.60;99.90
34279;DHT22;20538;51.528;9.942;2022-09-02T03:37:58;10.70;99.90
34279;DHT22;20538;51.528;9.942;2022-09-02T03:40:26;10.60;99.90
34279;DHT22;20538;51.528;9.942;2022-09-02T03:42:52;10.60;99.90
34279;DHT22;20538;51.528;9.942;2022-09-02T03:45:18;10.60;99.90
34279;DHT22;20538;51.528;9.942;2022-09-02T03:47:45;10.60;99.90
34279;DHT22;20538;51.528;9.942;2022-09-02T03:50:23;10.50;99.90
34279;DHT22;20538;51.528;9.942;2022-09-02T03:52:50;10.50;99.90
34279;DHT22;20538;51.528;9.942;2022-09-02T03:55:16;10.50;99.90
34279;DHT22;20538;51.528;9.942;2022-09-02T03:57:42;10.50;99.90
34279;DHT22;20538;51.528;9.942;2022-09-02T04:00:09;10.50;99.90
34279;DHT22;20538;51.528;9.942;2022-09-02T04:02:35;10.50;99.90
34279;DHT22;20538;51.528;9.942;2022-09-02T04:05:01;10.50;99.90
34279;DHT22;20538;51.528;9.942;2022-09-02T04:07:27;10.60;99.90
34279;DHT22;20538;51.528;9.942;2022-09-02T04:09:53;10.60;99.90
34279;DHT22;20538;51.528;9.942;2022-09-02T04:12:21;10.70;99.90
34279;DHT22;20538;51.528;9.942;2022-09-02T04:14:47;10.80;99.90
34279;DHT22;20538;51.528;9.942;2022-09-02T04:17:12;10.80;99.90
34279;DHT22;20538;51.528;9.942;2022-09-02T04:19:38;10.70;99.90
34279;DHT22;20538;51.528;9.942;2022-09-02T04:22:06;10.70;99.90
34279;DHT22;20538;51.528;9.942;2022-09-02T04:24:32;10.70;99.90
34279;DHT22;20538;51.528;9.942;2022-09-02T04:26:58;10.60;99.90
34279;DHT22;20538;51.528;9.942;2022-09-02T04:29:23;10.50;99.90
34279;DHT22;20538;51.528;9.942;2022-09-02T04:31:51;10.30;99.90
34279;DHT22;20538;51.528;9.942;2022-09-02T04:34:17;10.30;99.90
34279;DHT22;20538;51.528;9.942;2022-09-02T04:36:42;10.20;99.90
34279;DHT22;20538;51.528;9.942;2022-09-02T04:39:08;10.20;99.90
34279;DHT22;20538;51.528;9.942;2022-09-02T04:41:34;10.10;99.90
34279;DHT22;20538;51.528;9.942;2022-09-02T04:44:00;10.10;99.90
34279;DHT22;20538;51.528;9.942;2022-09-02T04:46:27;10.00;99.90
34279;DHT22;20538;51.528;9.942;2022-09-02T04:48:53;10.00;99.90
34279;DHT22;20538;51.528;9.942;2022-09-02T04:51:21;10.00;99.90
34279;DHT22;20538;51.528;9.942;2022-09-02T04:53:49;10.00;99.90
34279;DHT22;20538;51.528;9.942;2022-09-02T04:56:18;10.00;99.90
34279;DHT22;20538;51.528;9.942;2022-09-02T04:58:46;10.00;99.90
34279;DHT22;20538;51.528;9.942;2022-09-02T05:01:15;10.00;99.90
34279;DHT22;20538;51.528;9.942;2022-09-02T05:03:42;10.10;99.90
34279;DHT22;20538;51.528;9.942;2022-09-02T05:06:12;10.20;99.90
34279;DHT22;20538;51.528;9.942;2022-09-02T05:08:38;10.20;99.90
34279;DHT22;20538;51.528;9.942;2022-09-02T05:11:11;10.20;99.90
34279;DHT22;20538;51.528;9.942;2022-09-02T05:13:38;10.30;99.90
34279;DHT22;20538;51.528;9.942;2022-09-02T05:16:05;10.30;99.90
34279;DHT22;20538;51.528;9.942;2022-09-02T05:18:31;10.30;99.90
34279;DHT22;20538;51.528;9.942;2022-09-02T05:20:57;10.40;99.90
34279;DHT22;20538;51.528;9.942;2022-09-02T05:23:22;10.50;99.90
34279;DHT22;20538;51.528;9.942;2022-09-02T05:25:48;10.50;99.90
34279;DHT22;20538;51.528;9.942;2022-09-02T05:28:14;10.60;99.90
34279;DHT22;20538;51.528;9.942;2022-09-02T05:30:41;10.70;99.90
34279;DHT22;20538;51.528;9.942;2022-09-02T05:33:09;10.80;99.90
34279;DHT22;20538;51.528;9.942;2022-09-02T05:35:42;10.90;99.90
34279;DHT22;20538;51.528;9.942;2022-09-02T05:38:08;11.00;99.90
34279;DHT22;20538;51.528;9.942;2022-09-02T05:40:37;11.10;99.90
34279;DHT22;20538;51.528;9.942;2022-09-02T05:43:04;11.20;99.90
34279;DHT22;20538;51.528;9.942;2022-09-02T05:45:30;11.30;99.90
34279;DHT22;20538;51.528;9.942;2022-09-02T05:47:55;11.40;99.90
34279;DHT22;20538;51.528;9.942;2022-09-02T05:50:21;11.50;99.90
34279;DHT22;20538;51.528;9.942;2022-09-02T05:52:49;11.50;99.90
34279;DHT22;20538;51.528;9.942;2022-09-02T05:55:16;11.60;99.90
34279;DHT22;20538;51.528;9.942;2022-09-02T05:57:41;11.70;99.90
34279;DHT22;20538;51.528;9.942;2022-09-02T06:00:09;11.70;99.90
34279;DHT22;20538;51.528;9.942;2022-09-02T06:02:35;11.80;99.90
34279;DHT22;20538;51.528;9.942;2022-09-02T06:05:01;11.90;99.90
34279;DHT22;20538;51.528;9.942;2022-09-02T06:07:27;12.10;99.90
34279;DHT22;20538;51.528;9.942;2022-09-02T06:09:53;12.10;99.90
34279;DHT22;20538;51.528;9.942;2022-09-02T06:12:19;12.20;99.90
34279;DHT22;20538;51.528;9.942;2022-09-02T06:14:46;12.20;99.90
34279;DHT22;20538;51.528;9.942;2022-09-02T06:17:13;12.30;99.90
34279;DHT22;20538;51.528;9.942;2022-09-02T06:19:39;12.50;99.90
34279;DHT22;20538;51.528;9.942;2022-09-02T06:22:04;12.60;99.90
34279;DHT22;20538;51.528;9.942;2022-09-02T06:24:31;12.80;99.90
34279;DHT22;20538;51.528;9.942;2022-09-02T06:26:57;13.00;99.90
34279;DHT22;20538;51.528;9.942;2022-09-02T06:29:25;13.10;99.90
34279;DHT22;20538;51.528;9.942;2022-09-02T06:31:51;13.20;99.90
34279;DHT22;20538;51.528;9.942;2022-09-02T06:34:20;13.30;99.90
34279;DHT22;20538;51.528;9.942;2022-09-02T06:36:47;13.30;99.90
34279;DHT22;20538;51.528;9.942;2022-09-02T06:39:16;13.30;99.90
34279;DHT22;20538;51.528;9.942;2022-09-02T06:41:43;13.40;99.90
34279;DHT22;20538;51.528;9.942;2022-09-02T06:44:12;13.50;99.90
34279;DHT22;20538;51.528;9.942;2022-09-02T06:46:40;13.60;99.90
34279;DHT22;20538;51.528;9.942;2022-09-02T06:49:09;13.60;99.90
34279;DHT22;20538;51.528;9.942;2022-09-02T06:51:38;13.70;99.90
34279;DHT22;20538;51.528;9.942;2022-09-02T06:54:06;13.70;99.90
34279;DHT22;20538;51.528;9.942;2022-09-02T06:56:33;13.80;99.90
34279;DHT22;20538;51.528;9.942;2022-09-02T06:58:59;13.80;99.90
34279;DHT22;20538;51.528;9.942;2022-09-02T07:01:28;13.90;99.90
34279;DHT22;20538;51.528;9.942;2022-09-02T07:03:56;13.90;99.90
34279;DHT22;20538;51.528;9.942;2022-09-02T07:06:46;14.10;99.90
34279;DHT22;20538;51.528;9.942;2022-09-02T07:09:15;14.20;99.90
34279;DHT22;20538;51.528;9.942;2022-09-02T07:11:42;14.40;99.90
34279;DHT22;20538;51.528;9.942;2022-09-02T07:14:08;14.50;99.90
34279;DHT22;20538;51.528;9.942;2022-09-02T07:16:40;14.60;99.90
34279;DHT22;20538;51.528;9.942;2022-09-02T07:19:07;14.70;99.90
34279;DHT22;20538;51.528;9.942;2022-09-02T07:21:32;14.80;99.90
34279;DHT22;20538;51.528;9.942;2022-09-02T07:23:59;15.00;99.90
34279;DHT22;20538;51.528;9.942;2022-09-02T07:26:25;15.10;99.90
34279;DHT22;20538;51.528;9.942;2022-09-02T07:28:51;15.10;99.90
34279;DHT22;20538;51.528;9.942;2022-09-02T07:31:18;15.30;99.90
34279;DHT22;20538;51.528;9.942;2022-09-02T07:33:44;15.40;99.90
34279;DHT22;20538;51.528;9.942;2022-09-02T07:36:11;15.20;99.90
34279;DHT22;20538;51.528;9.942;2022-09-02T07:38:38;15.40;99.90
34279;DHT22;20538;51.528;9.942;2022-09-02T07:41:05;15.60;99.90
34279;DHT22;20538;51.528;9.942;2022-09-02T07:43:32;15.70;99.90
34279;DHT22;20538;51.528;9.942;2022-09-02T07:45:59;15.80;99.90
34279;DHT22;20538;51.528;9.942;2022-09-02T07:48:27;16.00;99.90
34279;DHT22;20538;51.528;9.942;2022-09-02T07:50:54;16.10;99.90
34279;DHT22;20538;51.528;9.942;2022-09-02T07:53:20;16.20;99.90
34279;DHT22;20538;51.528;9.942;2022-09-02T07:55:47;16.30;99.90
34279;DHT22;20538;51.528;9.942;2022-09-02T07:58:14;16.30;99.90
34279;DHT22;20538;51.528;9.942;2022-09-02T08:00:40;16.30;99.90
34279;DHT22;20538;51.528;9.942;2022-09-02T08:03:07;16.60;99.90
34279;DHT22;20538;51.528;9.942;2022-09-02T08:05:33;16.60;99.90
34279;DHT22;20538;51.528;9.942;2022-09-02T08:08:00;16.70;99.90
34279;DHT22;20538;51.528;9.942;2022-09-02T08:10:27;16.60;99.90
34279;DHT22;20538;51.528;9.942;2022-09-02T08:12:55;16.70;99.90
34279;DHT22;20538;51.528;9.942;2022-09-02T08:15:20;17.00;99.90
34279;DHT22;20538;51.528;9.942;2022-09-02T08:17:47;17.20;99.90
34279;DHT22;20538;51.528;9.942;2022-09-02T08:20:14;17.40;99.90
34279;DHT22;20538;51.528;9.942;2022-09-02T08:22:41;17.60;99.90
34279;DHT22;20538;51.528;9.942;2022-09-02T08:25:08;17.50;99.90
34279;DHT22;20538;51.528;9.942;2022-09-02T08:27:34;17.60;99.90
34279;DHT22;20538;51.528;9.942;2022-09-02T08:30:00;17.60;99.90
34279;DHT22;20538;51.528;9.942;2022-09-02T08:32:27;17.70;99.90
34279;DHT22;20538;51.528;9.942;2022-09-02T08:34:53;17.60;99.90
34279;DHT22;20538;51.528;9.942;2022-09-02T08:37:19;17.50;99.90
34279;DHT22;20538;51.528;9.942;2022-09-02T08:39:47;17.50;99.90
34279;DHT22;20538;51.528;9.942;2022-09-02T08:42:20;17.50;99.90
34279;DHT22;20538;51.528;9.942;2022-09-02T08:44:48;17.60;99.90
34279;DHT22;20538;51.528;9.942;2022-09-02T08:47:18;17.70;99.90
34279;DHT22;20538;51.528;9.942;2022-09-02T08:49:53;17.70;99.90
34279;DHT22;20538;51.528;9.942;2022-09-02T08:52:41;17.80;99.90
34279;DHT22;20538;51.528;9.942;2022-09-02T08:55:20;17.90;99.90
34279;DHT22;20538;51.528;9.942;2022-09-02T08:57:49;18.00;99.90
34279;DHT22;20538;51.528;9.942;2022-09-02T09:00:16;18.00;99.90
34279;DHT22;20538;51.528;9.942;2022-09-02T09:03:04;18.20;99.90
34279;DHT22;20538;51.528;9.942;2022-09-02T09:16:43;19.30;99.90
34279;DHT22;20538;51.528;9.942;2022-09-02T09:22:04;19.40;99.90
34279;DHT22;20538;51.528;9.942;2022-09-02T09:24:42;19.50;99.90
34279;DHT22;20538;51.528;9.942;2022-09-02T09:27:14;19.90;99.90
34279;DHT22;20538;51.528;9.942;2022-09-02T09:29:40;20.00;99.90
34279;DHT22;20538;51.528;9.942;2022-09-02T09:39:53;20.50;99.40
34279;DHT22;20538;51.528;9.942;2022-09-02T09:42:30;20.50;98.80
34279;DHT22;20538;51.528;9.942;2022-09-02T09:44:56;20.60;98.80
34279;DHT22;20538;51.528;9.942;2022-09-02T09:47:24;20.70;98.40
34279;DHT22;20538;51.528;9.942;2022-09-02T09:50:12;20.80;97.80
34279;DHT22;20538;51.528;9.942;2022-09-02T09:52:40;20.90;98.10
34279;DHT22;20538;51.528;9.942;2022-09-02T09:55:33;21.00;97.30
34279;DHT22;20538;51.528;9.942;2022-09-02T09:58:13;21.00;96.90
34279;DHT22;20538;51.528;9.942;2022-09-02T10:00:39;20.90;96.20
34279;DHT22;20538;51.528;9.942;2022-09-02T10:03:05;21.00;96.20
34279;DHT22;20538;51.528;9.942;2022-09-02T10:05:37;21.20;95.80
34279;DHT22;20538;51.528;9.942;2022-09-02T10:08:19;21.40;96.10
34279;DHT22;20538;51.528;9.942;2022-09-02T10:11:04;21.40;95.10
34279;DHT22;20538;51.528;9.942;2022-09-02T10:13:35;21.30;95.70
34279;DHT22;20538;51.528;9.942;2022-09-02T10:27:20;20.60;95.80
34279;DHT22;20538;51.528;9.942;2022-09-02T10:30:10;20.60;95.70
34279;DHT22;20538;51.528;9.942;2022-09-02T10:40:34;21.20;93.10
34279;DHT22;20538;51.528;9.942;2022-09-02T10:43:07;21.10;94.40
34279;DHT22;20538;51.528;9.942;2022-09-02T10:45:45;21.10;93.50
34279;DHT22;20538;51.528;9.942;2022-09-02T10:51:09;21.80;92.10
34279;DHT22;20538;51.528;9.942;2022-09-02T10:53:40;21.60;91.70
34279;DHT22;20538;51.528;9.942;2022-09-02T10:56:13;21.90;91.70
34279;DHT22;20538;51.528;9.942;2022-09-02T11:01:30;22.40;90.60
34279;DHT22;20538;51.528;9.942;2022-09-02T11:07:03;22.50;89.90
34279;DHT22;20538;51.528;9.942;2022-09-02T11:09:39;22.70;90.40
34279;DHT22;20538;51.528;9.942;2022-09-02T11:15:17;22.40;87.30
34279;DHT22;20538;51.528;9.942;2022-09-02T11:20:37;21.80;87.70
34279;DHT22;20538;51.528;9.942;2022-09-02T11:25:46;21.90;88.30
34279;DHT22;20538;51.528;9.942;2022-09-02T11:30:57;22.00;90.20
34279;DHT22;20538;51.528;9.942;2022-09-02T11:36:23;22.30;87.60
34279;DHT22;20538;51.528;9.942;2022-09-02T11:47:38;22.30;86.40
34279;DHT22;20538;51.528;9.942;2022-09-02T11:55:56;22.10;84.70
34279;DHT22;20538;51.528;9.942;2022-09-02T11:58:44;22.10;84.80
34279;DHT22;20538;51.528;9.942;2022-09-02T12:06:19;22.00;84.40
34279;DHT22;20538;51.528;9.942;2022-09-02T12:11:36;22.20;83.50
34279;DHT22;20538;51.528;9.942;2022-09-02T12:14:03;22.30;83.50
34279;DHT22;20538;51.528;9.942;2022-09-02T12:21:23;21.80;82.80
34279;DHT22;20538;51.528;9.942;2022-09-02T12:31:52;21.90;82.10
34279;DHT22;20538;51.528;9.942;2022-09-02T12:36:53;22.00;83.20
34279;DHT22;20538;51.528;9.942;2022-09-02T12:55:27;22.40;81.90
34279;DHT22;20538;51.528;9.942;2022-09-02T12:58:11;22.50;81.20
34279;DHT22;20538;51.528;9.942;2022-09-02T13:09:07;22.60;81.90
34279;DHT22;20538;51.528;9.942;2022-09-02T13:20:42;22.60;79.70
34279;DHT22;20538;51.528;9.942;2022-09-02T13:29:17;23.70;76.60
34279;DHT22;20538;51.528;9.942;2022-09-02T13:31:58;24.00;75.90
34279;DHT22;20538;51.528;9.942;2022-09-02T13:34:27;23.30;77.00
34279;DHT22;20538;51.528;9.942;2022-09-02T13:36:54;22.90;78.00
34279;DHT22;20538;51.528;9.942;2022-09-02T13:39:24;22.70;78.30
34279;DHT22;20538;51.528;9.942;2022-09-02T13:41:50;22.60;76.60
34279;DHT22;20538;51.528;9.942;2022-09-02T13:44:24;22.60;76.50
34279;DHT22;20538;51.528;9.942;2022-09-02T13:47:02;22.60;76.90
34279;DHT22;20538;51.528;9.942;2022-09-02T13:49:37;22.60;76.60
34279;DHT22;20538;51.528;9.942;2022-09-02T13:52:19;22.50;78.50
34279;DHT22;20538;51.528;9.942;2022-09-02T13:54:52;22.70;76.70
34279;DHT22;20538;51.528;9.942;2022-09-02T13:57:24;22.80;76.80
34279;DHT22;20538;51.528;9.942;2022-09-02T13:59:55;22.70;76.40
34279;DHT22;20538;51.528;9.942;2022-09-02T14:07:46;22.60;76.80
34279;DHT22;20538;51.528;9.942;2022-09-02T14:10:16;22.60;76.20
34279;DHT22;20538;51.528;9.942;2022-09-02T14:12:43;22.90;75.00
34279;DHT22;20538;51.528;9.942;2022-09-02T14:15:13;23.10;74.90
34279;DHT22;20538;51.528;9.942;2022-09-02T14:17:39;23.30;74.90
34279;DHT22;20538;51.528;9.942;2022-09-02T14:20:15;23.30;73.50
34279;DHT22;20538;51.528;9.942;2022-09-02T14:22:41;23.50;73.40
34279;DHT22;20538;51.528;9.942;2022-09-02T14:25:12;23.70;73.50
34279;DHT22;20538;51.528;9.942;2022-09-02T14:27:46;23.80;72.80
34279;DHT22;20538;51.528;9.942;2022-09-02T14:30:12;23.80;72.40
34279;DHT22;20538;51.528;9.942;2022-09-02T14:35:40;23.70;72.40
34279;DHT22;20538;51.528;9.942;2022-09-02T14:38:06;23.90;73.40
34279;DHT22;20538;51.528;9.942;2022-09-02T14:40:37;23.60;72.40
34279;DHT22;20538;51.528;9.942;2022-09-02T14:43:11;22.90;72.70
34279;DHT22;20538;51.528;9.942;2022-09-02T14:45:48;22.70;72.40
34279;DHT22;20538;51.528;9.942;2022-09-02T14:48:24;22.70;72.10
34279;DHT22;20538;51.528;9.942;2022-09-02T14:50:58;22.50;73.30
34279;DHT22;20538;51.528;9.942;2022-09-02T14:53:25;22.60;73.10
34279;DHT22;20538;51.528;9.942;2022-09-02T14:55:53;22.70;73.20
34279;DHT22;20538;51.528;9.942;2022-09-02T14:58:21;23.00;74.80
34279;DHT22;20538;51.528;9.942;2022-09-02T15:00:49;23.10;73.20
34279;DHT22;20538;51.528;9.942;2022-09-02T15:03:20;23.50;72.00
34279;DHT22;20538;51.528;9.942;2022-09-02T15:05:47;23.50;70.90
34279;DHT22;20538;51.528;9.942;2022-09-02T15:08:14;23.70;71.70
34279;DHT22;20538;51.528;9.942;2022-09-02T15:10:40;23.60;71.80
34279;DHT22;20538;51.528;9.942;2022-09-02T15:13:08;23.60;71.40
34279;DHT22;20538;51.528;9.942;2022-09-02T15:15:37;22.90;70.90
34279;DHT22;20538;51.528;9.942;2022-09-02T15:18:03;23.20;71.80
34279;DHT22;20538;51.528;9.942;2022-09-02T15:20:32;23.40;71.30
34279;DHT22;20538;51.528;9.942;2022-09-02T15:22:58;23.60;70.60
34279;DHT22;20538;51.528;9.942;2022-09-02T15:25:24;23.80;70.40
34279;DHT22;20538;51.528;9.942;2022-09-02T15:27:50;23.70;70.00
34279;DHT22;20538;51.528;9.942;2022-09-02T15:30:16;23.80;70.20
34279;DHT22;20538;51.528;9.942;2022-09-02T15:32:42;23.70;70.50
34279;DHT22;20538;51.528;9.942;2022-09-02T15:35:08;23.30;69.70
34279;DHT22;20538;51.528;9.942;2022-09-02T15:37:34;23.30;69.90
34279;DHT22;20538;51.528;9.942;2022-09-02T15:40:06;23.60;70.30
34279;DHT22;20538;51.528;9.942;2022-09-02T15:42:36;23.60;69.90
34279;DHT22;20538;51.528;9.942;2022-09-02T15:45:04;22.70;70.40
34279;DHT22;20538;51.528;9.942;2022-09-02T15:47:33;22.90;71.30
34279;DHT22;20538;51.528;9.942;2022-09-02T15:49:59;22.50;70.30
34279;DHT22;20538;51.528;9.942;2022-09-02T15:52:25;22.10;71.00
34279;DHT22;20538;51.528;9.942;2022-09-02T15:54:53;22.00;71.50
34279;DHT22;20538;51.528;9.942;2022-09-02T15:57:19;21.90;71.60
34279;DHT22;20538;51.528;9.942;2022-09-02T15:59:46;22.00;71.60
34279;DHT22;20538;51.528;9.942;2022-09-02T16:02:12;22.10;71.20
34279;DHT22;20538;51.528;9.942;2022-09-02T16:04:37;22.30;71.10
34279;DHT22;20538;51.528;9.942;2022-09-02T16:07:03;22.30;71.00
34279;DHT22;20538;51.528;9.942;2022-09-02T16:09:29;22.10;70.40
34279;DHT22;20538;51.528;9.942;2022-09-02T16:11:55;22.20;71.00
34279;DHT22;20538;51.528;9.942;2022-09-02T16:14:21;22.20;71.50
34279;DHT22;20538;51.528;9.942;2022-09-02T16:16:52;22.40;70.50
34279;DHT22;20538;51.528;9.942;2022-09-02T16:19:20;22.30;71.20
34279;DHT22;20538;51.528;9.942;2022-09-02T16:21:47;22.20;70.40
34279;DHT22;20538;51.528;9.942;2022-09-02T16:24:13;22.40;71.60
34279;DHT22;20538;51.528;9.942;2022-09-02T16:26:40;22.40;70.40
34279;DHT22;20538;51.528;9.942;2022-09-02T16:29:11;22.20;70.50
34279;DHT22;20538;51.528;9.942;2022-09-02T16:31:45;22.20;70.70
34279;DHT22;20538;51.528;9.942;2022-09-02T16:34:13;22.30;70.70
34279;DHT22;20538;51.528;9.942;2022-09-02T16:36:41;22.20;71.40
34279;DHT22;20538;51.528;9.942;2022-09-02T16:39:08;22.20;71.80
34279;DHT22;20538;51.528;9.942;2022-09-02T16:41:42;22.20;71.20
34279;DHT22;20538;51.528;9.942;2022-09-02T16:44:19;22.00;71.10
34279;DHT22;20538;51.528;9.942;2022-09-02T16:46:46;22.00;71.50
34279;DHT22;20538;51.528;9.942;2022-09-02T16:49:14;22.00;71.30
34279;DHT22;20538;51.528;9.942;2022-09-02T16:51:43;22.00;71.00
34279;DHT22;20538;51.528;9.942;2022-09-02T16:54:11;22.00;71.20
34279;DHT22;20538;51.528;9.942;2022-09-02T16:56:37;22.10;71.20
34279;DHT22;20538;51.528;9.942;2022-09-02T16:59:08;23.50;70.20
34279;DHT22;20538;51.528;9.942;2022-09-02T17:01:35;23.70;69.20
34279;DHT22;20538;51.528;9.942;2022-09-02T17:04:01;24.30;68.10
34279;DHT22;20538;51.528;9.942;2022-09-02T17:06:28;25.40;67.10
34279;DHT22;20538;51.528;9.942;2022-09-02T17:08:54;26.00;65.60
34279;DHT22;20538;51.528;9.942;2022-09-02T17:11:33;24.70;65.70
34279;DHT22;20538;51.528;9.942;2022-09-02T17:14:04;23.80;67.90
34279;DHT22;20538;51.528;9.942;2022-09-02T17:16:33;23.80;67.30
34279;DHT22;20538;51.528;9.942;2022-09-02T17:18:59;24.40;67.20
34279;DHT22;20538;51.528;9.942;2022-09-02T17:23:52;23.00;68.20
34279;DHT22;20538;51.528;9.942;2022-09-02T17:26:20;23.00;68.70
34279;DHT22;20538;51.528;9.942;2022-09-02T17:28:46;23.30;68.20
34279;DHT22;20538;51.528;9.942;2022-09-02T17:31:18;21.50;69.90
34279;DHT22;20538;51.528;9.942;2022-09-02T17:33:44;21.00;71.40
34279;DHT22;20538;51.528;9.942;2022-09-02T17:36:10;20.90;72.20
34279;DHT22;20538;51.528;9.942;2022-09-02T17:38:36;20.70;72.40
34279;DHT22;20538;51.528;9.942;2022-09-02T17:41:02;20.60;73.20
34279;DHT22;20538;51.528;9.942;2022-09-02T17:43:46;20.50;73.80
34279;DHT22;20538;51.528;9.942;2022-09-02T17:46:12;20.40;73.80
34279;DHT22;20538;51.528;9.942;2022-09-02T17:48:37;20.30;73.70
34279;DHT22;20538;51.528;9.942;2022-09-02T17:51:04;20.30;73.90
34279;DHT22;20538;51.528;9.942;2022-09-02T17:53:30;20.10;74.20
34279;DHT22;20538;51.528;9.942;2022-09-02T17:56:19;20.10;74.30
34279;DHT22;20538;51.528;9.942;2022-09-02T17:59:12;20.00;75.00
34279;DHT22;20538;51.528;9.942;2022-09-02T18:07:20;19.70;75.70
34279;DHT22;20538;51.528;9.942;2022-09-02T18:09:49;19.60;75.60
34279;DHT22;20538;51.528;9.942;2022-09-02T18:12:15;19.60;76.00
34279;DHT22;20538;51.528;9.942;2022-09-02T18:14:47;19.50;76.00
34279;DHT22;20538;51.528;9.942;2022-09-02T18:28:49;19.30;76.80
34279;DHT22;20538;51.528;9.942;2022-09-02T18:31:48;19.20;76.90